sensor_id;sensor_type;location;lat;lon;timestamp;P1;durP1;ratioP1;P2;durP2;ratioP2
58242;SDS011;50118;53.232;8.252;2023-04-12T00:01:33;7.65;;;3.03;;
58242;SDS011;50118;53.232;8.252;2023-04-12T00:03:59;7.38;;;2.80;;
58242;SDS011;50118;53.232;8.252;2023-04-12T00:06:28;8.18;;;3.08;;
58242;SDS011;50118;53.232;8.252;2023-04-12T00:08:57;7.82;;;2.85;;
58242;SDS011;50118;53.232;8.252;2023-04-12T00:11:23;7.05;;;2.38;;
58242;SDS011;50118;53.232;8.252;2023-04-12T00:13:50;8.63;;;2.60;;
58242;SDS011;50118;53.232;8.252;2023-04-12T00:16:15;9.02;;;3.00;;
58242;SDS011;50118;53.232;8.252;2023-04-12T00:18:41;7.63;;;2.90;;
58242;SDS011;50118;53.232;8.252;2023-04-12T00:21:06;9.93;;;3.00;;
58242;SDS011;50118;53.232;8.252;2023-04-12T00:23:34;9.27;;;3.10;;
58242;SDS011;50118;53.232;8.252;2023-04-12T00:26:02;6.93;;;2.67;;
58242;SDS011;50118;53.232;8.252;2023-04-12T00:28:27;10.07;;;2.58;;
58242;SDS011;50118;53.232;8.252;2023-04-12T00:30:53;8.68;;;2.55;;
58242;SDS011;50118;53.232;8.252;2023-04-12T00:33:18;7.43;;;2.67;;
58242;SDS011;50118;53.232;8.252;2023-04-12T00:35:44;6.43;;;2.65;;
58242;SDS011;50118;53.232;8.252;2023-04-12T00:38:09;9.57;;;2.67;;
58242;SDS011;50118;53.232;8.252;2023-04-12T00:40:35;7.50;;;2.70;;
58242;SDS011;50118;53.232;8.252;2023-04-12T00:43:04;7.35;;;2.90;;
58242;SDS011;50118;53.232;8.252;2023-04-12T00:45:30;5.20;;;2.50;;
58242;SDS011;50118;53.232;8.252;2023-04-12T00:47:56;7.32;;;2.90;;
58242;SDS011;50118;53.232;8.252;2023-04-12T00:50:21;8.15;;;2.80;;
58242;SDS011;50118;53.232;8.252;2023-04-12T00:52:47;6.50;;;2.63;;
58242;SDS011;50118;53.232;8.252;2023-04-12T00:55:12;7.65;;;2.58;;
58242;SDS011;50118;53.232;8.252;2023-04-12T00:57:40;6.88;;;2.55;;
58242;SDS011;50118;53.232;8.252;2023-04-12T01:00:06;9.02;;;2.92;;
58242;SDS011;50118;53.232;8.252;2023-04-12T01:02:36;6.75;;;2.40;;
58242;SDS011;50118;53.232;8.252;2023-04-12T01:05:03;7.07;;;2.42;;
58242;SDS011;50118;53.232;8.252;2023-04-12T01:07:37;8.57;;;2.70;;
58242;SDS011;50118;53.232;8.252;2023-04-12T01:13:08;5.82;;;2.40;;
58242;SDS011;50118;53.232;8.252;2023-04-12T01:15:51;10.68;;;3.22;;
58242;SDS011;50118;53.232;8.252;2023-04-12T01:18:35;8.02;;;2.60;;
58242;SDS011;50118;53.232;8.252;2023-04-12T01:21:13;5.28;;;2.70;;
58242;SDS011;50118;53.232;8.252;2023-04-12T01:24:18;7.22;;;2.40;;
58242;SDS011;50118;53.232;8.252;2023-04-12T01:27:34;7.75;;;2.40;;
58242;SDS011;50118;53.232;8.252;2023-04-12T01:30:21;9.55;;;2.55;;
58242;SDS011;50118;53.232;8.252;2023-04-12T01:32:50;6.65;;;2.55;;
58242;SDS011;50118;53.232;8.252;2023-04-12T01:35:19;4.22;;;2.10;;
58242;SDS011;50118;53.232;8.252;2023-04-12T01:37:46;6.82;;;2.65;;
58242;SDS011;50118;53.232;8.252;2023-04-12T01:40:12;6.53;;;2.40;;
58242;SDS011;50118;53.232;8.252;2023-04-12T01:42:38;8.13;;;2.65;;
58242;SDS011;50118;53.232;8.252;2023-04-12T01:45:06;11.18;;;2.88;;
58242;SDS011;50118;53.232;8.252;2023-04-12T01:47:32;6.10;;;2.60;;
58242;SDS011;50118;53.232;8.252;2023-04-12T01:50:02;8.07;;;2.30;;
58242;SDS011;50118;53.232;8.252;2023-04-12T01:52:30;8.17;;;2.47;;
58242;SDS011;50118;53.232;8.252;2023-04-12T01:54:58;9.32;;;2.80;;
58242;SDS011;50118;53.232;8.252;2023-04-12T01:57:28;6.45;;;2.53;;
58242;SDS011;50118;53.232;8.252;2023-04-12T01:59:54;5.30;;;2.17;;
58242;SDS011;50118;53.232;8.252;2023-04-12T02:02:22;4.90;;;2.30;;
58242;SDS011;50118;53.232;8.252;2023-04-12T02:04:48;4.78;;;2.20;;
58242;SDS011;50118;53.232;8.252;2023-04-12T02:07:16;5.68;;;2.22;;
58242;SDS011;50118;53.232;8.252;2023-04-12T02:09:44;7.72;;;2.30;;
58242;SDS011;50118;53.232;8.252;2023-04-12T02:12:10;7.53;;;2.15;;
58242;SDS011;50118;53.232;8.252;2023-04-12T02:14:35;6.03;;;2.50;;
58242;SDS011;50118;53.232;8.252;2023-04-12T02:17:00;7.03;;;2.70;;
58242;SDS011;50118;53.232;8.252;2023-04-12T02:19:28;6.93;;;2.47;;
58242;SDS011;50118;53.232;8.252;2023-04-12T02:21:54;5.18;;;2.10;;
58242;SDS011;50118;53.232;8.252;2023-04-12T02:24:19;6.90;;;2.42;;
58242;SDS011;50118;53.232;8.252;2023-04-12T02:26:45;8.35;;;2.38;;
58242;SDS011;50118;53.232;8.252;2023-04-12T02:29:13;5.93;;;2.47;;
58242;SDS011;50118;53.232;8.252;2023-04-12T02:31:39;9.75;;;2.42;;
58242;SDS011;50118;53.232;8.252;2023-04-12T02:34:05;7.22;;;2.20;;
58242;SDS011;50118;53.232;8.252;2023-04-12T02:36:31;4.85;;;2.10;;
58242;SDS011;50118;53.232;8.252;2023-04-12T02:38:59;6.50;;;2.40;;
58242;SDS011;50118;53.232;8.252;2023-04-12T02:41:24;6.70;;;2.53;;
58242;SDS011;50118;53.232;8.252;2023-04-12T02:43:50;5.93;;;2.28;;
58242;SDS011;50118;53.232;8.252;2023-04-12T02:46:22;8.00;;;2.55;;
58242;SDS011;50118;53.232;8.252;2023-04-12T02:48:49;6.78;;;2.30;;
58242;SDS011;50118;53.232;8.252;2023-04-12T02:51:15;6.45;;;2.38;;
58242;SDS011;50118;53.232;8.252;2023-04-12T02:53:41;6.18;;;2.28;;
58242;SDS011;50118;53.232;8.252;2023-04-12T02:56:06;7.05;;;2.30;;
58242;SDS011;50118;53.232;8.252;2023-04-12T02:58:33;8.70;;;2.30;;
58242;SDS011;50118;53.232;8.252;2023-04-12T03:00:59;8.20;;;2.80;;
58242;SDS011;50118;53.232;8.252;2023-04-12T03:03:25;6.90;;;2.08;;
58242;SDS011;50118;53.232;8.252;2023-04-12T03:05:52;4.85;;;2.03;;
58242;SDS011;50118;53.232;8.252;2023-04-12T03:08:19;7.97;;;2.20;;
58242;SDS011;50118;53.232;8.252;2023-04-12T03:10:45;9.95;;;2.58;;
58242;SDS011;50118;53.232;8.252;2023-04-12T03:13:11;5.57;;;2.58;;
58242;SDS011;50118;53.232;8.252;2023-04-12T03:15:36;4.57;;;2.28;;
58242;SDS011;50118;53.232;8.252;2023-04-12T03:18:02;4.60;;;2.20;;
58242;SDS011;50118;53.232;8.252;2023-04-12T03:20:27;5.10;;;2.20;;
58242;SDS011;50118;53.232;8.252;2023-04-12T03:22:53;6.40;;;2.20;;
58242;SDS011;50118;53.232;8.252;2023-04-12T03:25:19;5.53;;;2.45;;
58242;SDS011;50118;53.232;8.252;2023-04-12T03:27:44;7.35;;;2.40;;
58242;SDS011;50118;53.232;8.252;2023-04-12T03:30:10;6.70;;;2.50;;
58242;SDS011;50118;53.232;8.252;2023-04-12T03:32:37;6.15;;;2.45;;
58242;SDS011;50118;53.232;8.252;2023-04-12T03:35:03;6.50;;;2.20;;
58242;SDS011;50118;53.232;8.252;2023-04-12T03:37:29;5.35;;;2.30;;
58242;SDS011;50118;53.232;8.252;2023-04-12T03:39:55;8.18;;;2.50;;
58242;SDS011;50118;53.232;8.252;2023-04-12T03:42:20;6.25;;;2.50;;
58242;SDS011;50118;53.232;8.252;2023-04-12T03:44:45;7.97;;;2.60;;
58242;SDS011;50118;53.232;8.252;2023-04-12T03:47:12;8.13;;;2.65;;
58242;SDS011;50118;53.232;8.252;2023-04-12T03:49:38;4.80;;;2.20;;
58242;SDS011;50118;53.232;8.252;2023-04-12T03:52:06;6.75;;;2.58;;
58242;SDS011;50118;53.232;8.252;2023-04-12T03:54:32;7.30;;;2.72;;
58242;SDS011;50118;53.232;8.252;2023-04-12T03:56:57;5.93;;;2.58;;
58242;SDS011;50118;53.232;8.252;2023-04-12T03:59:23;9.60;;;2.70;;
58242;SDS011;50118;53.232;8.252;2023-04-12T04:01:48;9.43;;;2.60;;
58242;SDS011;50118;53.232;8.252;2023-04-12T04:04:14;8.25;;;2.85;;
58242;SDS011;50118;53.232;8.252;2023-04-12T04:06:39;6.22;;;2.75;;
58242;SDS011;50118;53.232;8.252;2023-04-12T04:09:05;6.35;;;2.78;;
58242;SDS011;50118;53.232;8.252;2023-04-12T04:11:31;7.68;;;3.00;;
58242;SDS011;50118;53.232;8.252;2023-04-12T04:13:56;10.48;;;2.88;;
58242;SDS011;50118;53.232;8.252;2023-04-12T04:16:22;5.70;;;2.83;;
58242;SDS011;50118;53.232;8.252;2023-04-12T04:18:47;7.18;;;2.63;;
58242;SDS011;50118;53.232;8.252;2023-04-12T04:21:13;5.05;;;2.45;;
58242;SDS011;50118;53.232;8.252;2023-04-12T04:23:38;9.80;;;3.22;;
58242;SDS011;50118;53.232;8.252;2023-04-12T04:26:05;5.75;;;2.65;;
58242;SDS011;50118;53.232;8.252;2023-04-12T04:28:34;9.68;;;2.85;;
58242;SDS011;50118;53.232;8.252;2023-04-12T04:31:01;8.32;;;3.00;;
58242;SDS011;50118;53.232;8.252;2023-04-12T04:33:33;6.10;;;2.75;;
58242;SDS011;50118;53.232;8.252;2023-04-12T04:35:59;10.98;;;2.80;;
58242;SDS011;50118;53.232;8.252;2023-04-12T04:38:25;5.18;;;3.15;;
58242;SDS011;50118;53.232;8.252;2023-04-12T04:40:51;6.57;;;2.75;;
58242;SDS011;50118;53.232;8.252;2023-04-12T04:43:19;7.63;;;2.88;;
58242;SDS011;50118;53.232;8.252;2023-04-12T04:45:46;5.95;;;2.72;;
58242;SDS011;50118;53.232;8.252;2023-04-12T04:48:14;5.70;;;2.53;;
58242;SDS011;50118;53.232;8.252;2023-04-12T04:50:40;11.93;;;3.17;;
58242;SDS011;50118;53.232;8.252;2023-04-12T04:53:06;10.18;;;3.00;;
58242;SDS011;50118;53.232;8.252;2023-04-12T04:55:31;6.75;;;2.78;;
58242;SDS011;50118;53.232;8.252;2023-04-12T04:57:57;6.07;;;2.47;;
58242;SDS011;50118;53.232;8.252;2023-04-12T05:00:22;7.65;;;3.00;;
58242;SDS011;50118;53.232;8.252;2023-04-12T05:02:49;6.75;;;2.70;;
58242;SDS011;50118;53.232;8.252;2023-04-12T05:05:15;6.28;;;2.72;;
58242;SDS011;50118;53.232;8.252;2023-04-12T05:07:42;6.70;;;2.85;;
58242;SDS011;50118;53.232;8.252;2023-04-12T05:10:08;8.02;;;2.78;;
58242;SDS011;50118;53.232;8.252;2023-04-12T05:12:34;8.25;;;2.80;;
58242;SDS011;50118;53.232;8.252;2023-04-12T05:15:01;4.55;;;2.55;;
58242;SDS011;50118;53.232;8.252;2023-04-12T05:17:27;6.38;;;2.40;;
58242;SDS011;50118;53.232;8.252;2023-04-12T05:19:52;4.65;;;2.90;;
58242;SDS011;50118;53.232;8.252;2023-04-12T05:22:18;6.88;;;2.95;;
58242;SDS011;50118;53.232;8.252;2023-04-12T05:24:46;4.75;;;2.40;;
58242;SDS011;50118;53.232;8.252;2023-04-12T05:27:13;9.65;;;2.63;;
58242;SDS011;50118;53.232;8.252;2023-04-12T05:29:40;7.28;;;2.40;;
58242;SDS011;50118;53.232;8.252;2023-04-12T05:32:06;5.50;;;2.60;;
58242;SDS011;50118;53.232;8.252;2023-04-12T05:34:32;7.93;;;2.30;;
58242;SDS011;50118;53.232;8.252;2023-04-12T05:36:57;6.63;;;2.63;;
58242;SDS011;50118;53.232;8.252;2023-04-12T05:39:23;8.05;;;2.40;;
58242;SDS011;50118;53.232;8.252;2023-04-12T05:41:49;5.43;;;2.60;;
58242;SDS011;50118;53.232;8.252;2023-04-12T05:44:15;7.25;;;2.35;;
58242;SDS011;50118;53.232;8.252;2023-04-12T05:46:40;5.20;;;2.28;;
58242;SDS011;50118;53.232;8.252;2023-04-12T05:49:06;6.68;;;2.50;;
58242;SDS011;50118;53.232;8.252;2023-04-12T05:51:32;4.80;;;2.38;;
58242;SDS011;50118;53.232;8.252;2023-04-12T05:53:57;5.72;;;2.20;;
58242;SDS011;50118;53.232;8.252;2023-04-12T05:56:23;5.85;;;2.30;;
58242;SDS011;50118;53.232;8.252;2023-04-12T05:58:48;6.10;;;2.13;;
58242;SDS011;50118;53.232;8.252;2023-04-12T06:01:13;4.65;;;2.03;;
58242;SDS011;50118;53.232;8.252;2023-04-12T06:03:40;6.20;;;2.20;;
58242;SDS011;50118;53.232;8.252;2023-04-12T06:06:07;6.93;;;2.00;;
58242;SDS011;50118;53.232;8.252;2023-04-12T06:08:34;7.47;;;2.35;;
58242;SDS011;50118;53.232;8.252;2023-04-12T06:11:02;3.65;;;2.08;;
58242;SDS011;50118;53.232;8.252;2023-04-12T06:13:30;6.10;;;2.33;;
58242;SDS011;50118;53.232;8.252;2023-04-12T06:15:56;7.28;;;2.33;;
58242;SDS011;50118;53.232;8.252;2023-04-12T06:18:21;3.28;;;1.90;;
58242;SDS011;50118;53.232;8.252;2023-04-12T06:20:46;4.82;;;1.83;;
58242;SDS011;50118;53.232;8.252;2023-04-12T06:23:12;6.05;;;2.15;;
58242;SDS011;50118;53.232;8.252;2023-04-12T06:25:37;8.30;;;2.20;;
58242;SDS011;50118;53.232;8.252;2023-04-12T06:28:03;6.20;;;2.20;;
58242;SDS011;50118;53.232;8.252;2023-04-12T06:30:28;5.55;;;1.95;;
58242;SDS011;50118;53.232;8.252;2023-04-12T06:32:54;4.30;;;2.10;;
58242;SDS011;50118;53.232;8.252;2023-04-12T06:35:20;5.63;;;1.80;;
58242;SDS011;50118;53.232;8.252;2023-04-12T06:37:46;4.82;;;1.88;;
58242;SDS011;50118;53.232;8.252;2023-04-12T06:40:11;6.25;;;2.10;;
58242;SDS011;50118;53.232;8.252;2023-04-12T06:42:37;5.75;;;2.22;;
58242;SDS011;50118;53.232;8.252;2023-04-12T06:45:03;8.05;;;2.05;;
58242;SDS011;50118;53.232;8.252;2023-04-12T06:47:29;7.82;;;2.10;;
58242;SDS011;50118;53.232;8.252;2023-04-12T06:49:56;4.68;;;1.80;;
58242;SDS011;50118;53.232;8.252;2023-04-12T06:52:25;5.57;;;2.17;;
58242;SDS011;50118;53.232;8.252;2023-04-12T06:54:51;4.28;;;1.98;;
58242;SDS011;50118;53.232;8.252;2023-04-12T06:57:17;5.00;;;2.10;;
58242;SDS011;50118;53.232;8.252;2023-04-12T06:59:42;6.28;;;2.10;;
58242;SDS011;50118;53.232;8.252;2023-04-12T07:02:08;6.55;;;2.38;;
58242;SDS011;50118;53.232;8.252;2023-04-12T07:04:33;6.25;;;2.25;;
58242;SDS011;50118;53.232;8.252;2023-04-12T07:06:59;4.55;;;2.20;;
58242;SDS011;50118;53.232;8.252;2023-04-12T07:09:24;7.07;;;2.20;;
58242;SDS011;50118;53.232;8.252;2023-04-12T07:11:50;7.20;;;2.28;;
58242;SDS011;50118;53.232;8.252;2023-04-12T07:14:15;6.53;;;2.10;;
58242;SDS011;50118;53.232;8.252;2023-04-12T07:16:41;7.13;;;2.33;;
58242;SDS011;50118;53.232;8.252;2023-04-12T07:19:07;10.10;;;2.20;;
58242;SDS011;50118;53.232;8.252;2023-04-12T07:21:32;6.93;;;2.20;;
58242;SDS011;50118;53.232;8.252;2023-04-12T07:23:58;6.55;;;2.00;;
58242;SDS011;50118;53.232;8.252;2023-04-12T07:26:23;5.40;;;2.05;;
58242;SDS011;50118;53.232;8.252;2023-04-12T07:28:50;6.45;;;2.03;;
58242;SDS011;50118;53.232;8.252;2023-04-12T07:31:15;5.95;;;1.90;;
58242;SDS011;50118;53.232;8.252;2023-04-12T07:33:41;5.90;;;2.75;;
58242;SDS011;50118;53.232;8.252;2023-04-12T07:36:07;6.32;;;2.13;;
58242;SDS011;50118;53.232;8.252;2023-04-12T07:38:32;5.85;;;2.25;;
58242;SDS011;50118;53.232;8.252;2023-04-12T07:40:58;6.03;;;1.95;;
58242;SDS011;50118;53.232;8.252;2023-04-12T07:43:23;5.50;;;2.40;;
58242;SDS011;50118;53.232;8.252;2023-04-12T07:45:49;5.72;;;2.00;;
58242;SDS011;50118;53.232;8.252;2023-04-12T07:48:15;5.57;;;1.95;;
58242;SDS011;50118;53.232;8.252;2023-04-12T07:50:41;6.07;;;1.75;;
58242;SDS011;50118;53.232;8.252;2023-04-12T07:53:22;5.82;;;1.77;;
58242;SDS011;50118;53.232;8.252;2023-04-12T07:55:50;6.10;;;1.90;;
58242;SDS011;50118;53.232;8.252;2023-04-12T07:58:16;6.38;;;2.10;;
58242;SDS011;50118;53.232;8.252;2023-04-12T08:00:44;5.13;;;1.90;;
58242;SDS011;50118;53.232;8.252;2023-04-12T08:03:11;5.07;;;1.95;;
58242;SDS011;50118;53.232;8.252;2023-04-12T08:05:38;5.35;;;1.70;;
58242;SDS011;50118;53.232;8.252;2023-04-12T08:08:04;4.63;;;1.98;;
58242;SDS011;50118;53.232;8.252;2023-04-12T08:10:30;4.20;;;2.20;;
58242;SDS011;50118;53.232;8.252;2023-04-12T08:12:56;5.07;;;2.05;;
58242;SDS011;50118;53.232;8.252;2023-04-12T08:15:21;4.57;;;1.83;;
58242;SDS011;50118;53.232;8.252;2023-04-12T08:17:47;4.72;;;2.00;;
58242;SDS011;50118;53.232;8.252;2023-04-12T08:20:12;5.18;;;2.05;;
58242;SDS011;50118;53.232;8.252;2023-04-12T08:22:40;4.57;;;2.30;;
58242;SDS011;50118;53.232;8.252;2023-04-12T08:25:06;7.63;;;2.45;;
58242;SDS011;50118;53.232;8.252;2023-04-12T08:27:32;5.25;;;2.05;;
58242;SDS011;50118;53.232;8.252;2023-04-12T08:29:58;4.78;;;2.22;;
58242;SDS011;50118;53.232;8.252;2023-04-12T08:32:23;5.13;;;2.30;;
58242;SDS011;50118;53.232;8.252;2023-04-12T08:34:49;5.65;;;2.35;;
58242;SDS011;50118;53.232;8.252;2023-04-12T08:37:15;5.43;;;1.92;;
58242;SDS011;50118;53.232;8.252;2023-04-12T08:39:41;4.90;;;2.28;;
58242;SDS011;50118;53.232;8.252;2023-04-12T08:42:07;6.40;;;2.50;;
58242;SDS011;50118;53.232;8.252;2023-04-12T08:44:36;4.18;;;2.30;;
58242;SDS011;50118;53.232;8.252;2023-04-12T08:47:03;6.50;;;2.20;;
58242;SDS011;50118;53.232;8.252;2023-04-12T08:49:30;4.15;;;2.33;;
58242;SDS011;50118;53.232;8.252;2023-04-12T08:51:59;6.05;;;2.47;;
58242;SDS011;50118;53.232;8.252;2023-04-12T08:54:29;5.85;;;2.30;;
58242;SDS011;50118;53.232;8.252;2023-04-12T08:56:55;5.65;;;2.50;;
58242;SDS011;50118;53.232;8.252;2023-04-12T08:59:24;4.47;;;2.25;;
58242;SDS011;50118;53.232;8.252;2023-04-12T09:01:52;6.70;;;2.72;;
58242;SDS011;50118;53.232;8.252;2023-04-12T09:04:18;5.38;;;2.78;;
58242;SDS011;50118;53.232;8.252;2023-04-12T09:06:43;4.90;;;2.50;;
58242;SDS011;50118;53.232;8.252;2023-04-12T09:09:09;4.97;;;2.65;;
58242;SDS011;50118;53.232;8.252;2023-04-12T09:11:35;6.25;;;2.78;;
58242;SDS011;50118;53.232;8.252;2023-04-12T09:14:00;4.45;;;2.63;;
58242;SDS011;50118;53.232;8.252;2023-04-12T09:16:36;7.32;;;3.00;;
58242;SDS011;50118;53.232;8.252;2023-04-12T09:19:03;6.20;;;2.50;;
58242;SDS011;50118;53.232;8.252;2023-04-12T09:21:28;6.20;;;2.67;;
58242;SDS011;50118;53.232;8.252;2023-04-12T09:24:02;5.05;;;2.45;;
58242;SDS011;50118;53.232;8.252;2023-04-12T09:26:33;6.03;;;2.97;;
58242;SDS011;50118;53.232;8.252;2023-04-12T09:28:59;5.05;;;2.70;;
58242;SDS011;50118;53.232;8.252;2023-04-12T09:31:25;6.03;;;2.83;;
58242;SDS011;50118;53.232;8.252;2023-04-12T09:33:50;4.80;;;2.95;;
58242;SDS011;50118;53.232;8.252;2023-04-12T09:36:16;6.88;;;2.83;;
58242;SDS011;50118;53.232;8.252;2023-04-12T09:38:59;6.32;;;3.00;;
58242;SDS011;50118;53.232;8.252;2023-04-12T09:41:28;5.15;;;2.80;;
58242;SDS011;50118;53.232;8.252;2023-04-12T09:43:56;6.50;;;2.50;;
58242;SDS011;50118;53.232;8.252;2023-04-12T09:46:22;5.63;;;2.75;;
58242;SDS011;50118;53.232;8.252;2023-04-12T09:48:49;8.02;;;3.00;;
58242;SDS011;50118;53.232;8.252;2023-04-12T09:51:24;5.47;;;2.70;;
58242;SDS011;50118;53.232;8.252;2023-04-12T09:53:59;5.03;;;2.70;;
58242;SDS011;50118;53.232;8.252;2023-04-12T09:56:29;6.80;;;3.13;;
58242;SDS011;50118;53.232;8.252;2023-04-12T09:58:59;6.43;;;3.08;;
58242;SDS011;50118;53.232;8.252;2023-04-12T10:01:33;5.90;;;2.85;;
58242;SDS011;50118;53.232;8.252;2023-04-12T10:04:04;5.43;;;3.13;;
58242;SDS011;50118;53.232;8.252;2023-04-12T10:06:31;5.82;;;3.10;;
58242;SDS011;50118;53.232;8.252;2023-04-12T10:08:57;5.85;;;2.70;;
58242;SDS011;50118;53.232;8.252;2023-04-12T10:11:26;8.10;;;3.20;;
58242;SDS011;50118;53.232;8.252;2023-04-12T10:13:53;6.10;;;3.15;;
58242;SDS011;50118;53.232;8.252;2023-04-12T10:16:22;5.82;;;3.10;;
58242;SDS011;50118;53.232;8.252;2023-04-12T10:18:51;6.20;;;3.30;;
58242;SDS011;50118;53.232;8.252;2023-04-12T10:21:18;5.30;;;3.00;;
58242;SDS011;50118;53.232;8.252;2023-04-12T10:23:44;4.55;;;2.88;;
58242;SDS011;50118;53.232;8.252;2023-04-12T10:26:11;5.20;;;3.25;;
58242;SDS011;50118;53.232;8.252;2023-04-12T10:28:40;6.43;;;3.47;;
58242;SDS011;50118;53.232;8.252;2023-04-12T10:31:26;6.30;;;3.40;;
58242;SDS011;50118;53.232;8.252;2023-04-12T10:33:56;7.15;;;3.35;;
58242;SDS011;50118;53.232;8.252;2023-04-12T10:39:17;6.28;;;3.75;;
58242;SDS011;50118;53.232;8.252;2023-04-12T10:42:21;6.38;;;3.30;;
58242;SDS011;50118;53.232;8.252;2023-04-12T10:44:48;6.55;;;3.60;;
58242;SDS011;50118;53.232;8.252;2023-04-12T10:50:24;6.88;;;3.90;;
58242;SDS011;50118;53.232;8.252;2023-04-12T10:55:41;6.45;;;3.75;;
58242;SDS011;50118;53.232;8.252;2023-04-12T10:58:08;5.90;;;3.83;;
58242;SDS011;50118;53.232;8.252;2023-04-12T11:03:22;7.47;;;3.92;;
58242;SDS011;50118;53.232;8.252;2023-04-12T11:06:04;6.65;;;4.43;;
58242;SDS011;50118;53.232;8.252;2023-04-12T11:08:30;7.70;;;4.43;;
58242;SDS011;50118;53.232;8.252;2023-04-12T11:11:03;7.28;;;5.00;;
58242;SDS011;50118;53.232;8.252;2023-04-12T11:13:35;7.03;;;4.70;;
58242;SDS011;50118;53.232;8.252;2023-04-12T11:16:03;5.97;;;4.60;;
58242;SDS011;50118;53.232;8.252;2023-04-12T11:18:32;6.78;;;5.20;;
58242;SDS011;50118;53.232;8.252;2023-04-12T11:20:58;7.63;;;5.35;;
58242;SDS011;50118;53.232;8.252;2023-04-12T11:23:23;8.35;;;6.05;;
58242;SDS011;50118;53.232;8.252;2023-04-12T11:25:49;8.32;;;5.95;;
58242;SDS011;50118;53.232;8.252;2023-04-12T11:28:17;7.63;;;5.80;;
58242;SDS011;50118;53.232;8.252;2023-04-12T11:30:52;8.68;;;5.68;;
58242;SDS011;50118;53.232;8.252;2023-04-12T11:33:35;7.80;;;5.55;;
58242;SDS011;50118;53.232;8.252;2023-04-12T11:36:05;6.68;;;5.53;;
58242;SDS011;50118;53.232;8.252;2023-04-12T11:38:33;8.30;;;5.85;;
58242;SDS011;50118;53.232;8.252;2023-04-12T11:40:59;7.68;;;5.47;;
58242;SDS011;50118;53.232;8.252;2023-04-12T11:43:25;7.72;;;5.35;;
58242;SDS011;50118;53.232;8.252;2023-04-12T11:45:54;7.18;;;5.00;;
58242;SDS011;50118;53.232;8.252;2023-04-12T11:50:49;6.65;;;4.28;;
58242;SDS011;50118;53.232;8.252;2023-04-12T11:53:15;4.50;;;3.47;;
58242;SDS011;50118;53.232;8.252;2023-04-12T11:55:46;5.47;;;3.28;;
58242;SDS011;50118;53.232;8.252;2023-04-12T11:58:13;4.47;;;3.20;;
58242;SDS011;50118;53.232;8.252;2023-04-12T12:00:40;5.80;;;3.30;;
58242;SDS011;50118;53.232;8.252;2023-04-12T12:03:06;4.78;;;3.17;;
58242;SDS011;50118;53.232;8.252;2023-04-12T12:05:31;4.63;;;3.58;;
58242;SDS011;50118;53.232;8.252;2023-04-12T12:08:00;4.15;;;3.00;;
58242;SDS011;50118;53.232;8.252;2023-04-12T12:10:29;6.82;;;3.20;;
58242;SDS011;50118;53.232;8.252;2023-04-12T12:12:58;5.55;;;3.28;;
58242;SDS011;50118;53.232;8.252;2023-04-12T12:15:28;4.88;;;3.45;;
58242;SDS011;50118;53.232;8.252;2023-04-12T12:17:54;5.28;;;3.42;;
58242;SDS011;50118;53.232;8.252;2023-04-12T12:20:20;5.72;;;3.65;;
58242;SDS011;50118;53.232;8.252;2023-04-12T12:22:45;6.13;;;3.67;;
58242;SDS011;50118;53.232;8.252;2023-04-12T12:25:11;5.85;;;3.95;;
58242;SDS011;50118;53.232;8.252;2023-04-12T12:27:37;6.15;;;3.92;;
58242;SDS011;50118;53.232;8.252;2023-04-12T12:30:07;5.60;;;3.90;;
58242;SDS011;50118;53.232;8.252;2023-04-12T12:32:36;6.72;;;3.97;;
58242;SDS011;50118;53.232;8.252;2023-04-12T12:35:07;4.10;;;2.80;;
58242;SDS011;50118;53.232;8.252;2023-04-12T12:37:36;4.25;;;2.95;;
58242;SDS011;50118;53.232;8.252;2023-04-12T12:40:11;4.10;;;2.70;;
58242;SDS011;50118;53.232;8.252;2023-04-12T12:42:47;5.40;;;3.00;;
58242;SDS011;50118;53.232;8.252;2023-04-12T12:45:14;4.18;;;2.33;;
58242;SDS011;50118;53.232;8.252;2023-04-12T12:50:18;3.20;;;2.10;;
58242;SDS011;50118;53.232;8.252;2023-04-12T12:52:46;4.15;;;2.33;;
58242;SDS011;50118;53.232;8.252;2023-04-12T12:55:13;3.70;;;2.33;;
58242;SDS011;50118;53.232;8.252;2023-04-12T12:57:40;4.68;;;2.15;;
58242;SDS011;50118;53.232;8.252;2023-04-12T13:00:07;3.55;;;2.20;;
58242;SDS011;50118;53.232;8.252;2023-04-12T13:02:34;2.97;;;2.10;;
58242;SDS011;50118;53.232;8.252;2023-04-12T13:05:00;3.60;;;2.53;;
58242;SDS011;50118;53.232;8.252;2023-04-12T13:07:26;2.67;;;1.80;;
58242;SDS011;50118;53.232;8.252;2023-04-12T13:09:52;2.90;;;1.98;;
58242;SDS011;50118;53.232;8.252;2023-04-12T13:12:17;2.70;;;1.90;;
58242;SDS011;50118;53.232;8.252;2023-04-12T13:14:45;2.97;;;2.25;;
58242;SDS011;50118;53.232;8.252;2023-04-12T13:17:11;2.70;;;2.00;;
58242;SDS011;50118;53.232;8.252;2023-04-12T13:19:37;2.92;;;2.13;;
58242;SDS011;50118;53.232;8.252;2023-04-12T13:22:02;3.85;;;2.33;;
58242;SDS011;50118;53.232;8.252;2023-04-12T13:24:27;3.15;;;2.10;;
58242;SDS011;50118;53.232;8.252;2023-04-12T13:26:53;3.20;;;2.30;;
58242;SDS011;50118;53.232;8.252;2023-04-12T13:29:18;4.00;;;2.15;;
58242;SDS011;50118;53.232;8.252;2023-04-12T13:31:44;3.55;;;2.20;;
58242;SDS011;50118;53.232;8.252;2023-04-12T13:34:10;3.17;;;2.20;;
58242;SDS011;50118;53.232;8.252;2023-04-12T13:36:35;4.40;;;2.50;;
58242;SDS011;50118;53.232;8.252;2023-04-12T13:39:08;3.28;;;2.20;;
58242;SDS011;50118;53.232;8.252;2023-04-12T13:41:34;3.88;;;2.30;;
58242;SDS011;50118;53.232;8.252;2023-04-12T13:44:00;3.63;;;2.20;;
58242;SDS011;50118;53.232;8.252;2023-04-12T13:46:26;2.90;;;2.05;;
58242;SDS011;50118;53.232;8.252;2023-04-12T13:48:51;2.40;;;1.92;;
58242;SDS011;50118;53.232;8.252;2023-04-12T13:51:17;3.15;;;2.20;;
58242;SDS011;50118;53.232;8.252;2023-04-12T13:53:43;2.83;;;2.13;;
58242;SDS011;50118;53.232;8.252;2023-04-12T13:56:09;2.88;;;1.90;;
58242;SDS011;50118;53.232;8.252;2023-04-12T13:58:39;2.78;;;2.30;;
58242;SDS011;50118;53.232;8.252;2023-04-12T14:01:08;3.85;;;2.20;;
58242;SDS011;50118;53.232;8.252;2023-04-12T14:03:34;2.83;;;2.13;;
58242;SDS011;50118;53.232;8.252;2023-04-12T14:05:59;2.75;;;2.00;;
58242;SDS011;50118;53.232;8.252;2023-04-12T14:08:25;3.33;;;2.22;;
58242;SDS011;50118;53.232;8.252;2023-04-12T14:10:53;3.00;;;2.25;;
58242;SDS011;50118;53.232;8.252;2023-04-12T14:13:20;4.00;;;2.70;;
58242;SDS011;50118;53.232;8.252;2023-04-12T14:15:50;3.70;;;2.50;;
58242;SDS011;50118;53.232;8.252;2023-04-12T14:18:16;4.40;;;2.40;;
58242;SDS011;50118;53.232;8.252;2023-04-12T14:20:49;3.33;;;2.33;;
58242;SDS011;50118;53.232;8.252;2023-04-12T14:23:18;3.47;;;2.53;;
58242;SDS011;50118;53.232;8.252;2023-04-12T14:25:45;3.30;;;2.40;;
58242;SDS011;50118;53.232;8.252;2023-04-12T14:28:11;3.13;;;2.40;;
58242;SDS011;50118;53.232;8.252;2023-04-12T14:30:40;3.80;;;2.67;;
58242;SDS011;50118;53.232;8.252;2023-04-12T14:33:14;3.28;;;2.30;;
58242;SDS011;50118;53.232;8.252;2023-04-12T14:35:43;3.60;;;2.40;;
58242;SDS011;50118;53.232;8.252;2023-04-12T14:38:09;3.90;;;2.50;;
58242;SDS011;50118;53.232;8.252;2023-04-12T14:40:34;3.33;;;2.45;;
58242;SDS011;50118;53.232;8.252;2023-04-12T14:43:03;3.58;;;2.40;;
58242;SDS011;50118;53.232;8.252;2023-04-12T14:45:37;4.55;;;2.30;;
58242;SDS011;50118;53.232;8.252;2023-04-12T14:48:03;4.15;;;2.65;;
58242;SDS011;50118;53.232;8.252;2023-04-12T14:50:28;2.90;;;2.20;;
58242;SDS011;50118;53.232;8.252;2023-04-12T14:52:54;3.58;;;2.45;;
58242;SDS011;50118;53.232;8.252;2023-04-12T14:55:19;3.20;;;2.30;;
58242;SDS011;50118;53.232;8.252;2023-04-12T14:57:45;4.15;;;2.47;;
58242;SDS011;50118;53.232;8.252;2023-04-12T15:00:11;5.28;;;2.63;;
58242;SDS011;50118;53.232;8.252;2023-04-12T15:02:38;3.38;;;2.50;;
58242;SDS011;50118;53.232;8.252;2023-04-12T15:05:04;3.03;;;2.30;;
58242;SDS011;50118;53.232;8.252;2023-04-12T15:07:32;4.57;;;2.30;;
58242;SDS011;50118;53.232;8.252;2023-04-12T15:09:58;2.95;;;2.22;;